Weather at Kopaida Moschonis Airfield [CLOSED]

Public forecast

Using degrees Celsius for public forecast. Weather courtesy of forecast.io.

Closest aviation weather report (METAR) to Kopaida Moschonis Airfield

Closest report is Tanagra Air Base, 21.0 nm (38.9 km) ESE. Retrieved 2021/06/24 16:50 UTC (1 hour ago):

LGTG 241650Z 00000KT CAVOK 34/13 Q1015 BLU

Closest aviation forecast (TAF) to Kopaida Moschonis Airfield

Closest forecast is Elefsis Airport, 29.7 nm (55.0 km) SE. Retrieved 2021/06/24 12:12 UTC (6 hours ago):

TAF LGEL 241100Z 2412/2512 VRB05KT 9999 FEW025 TEMPO 2412/2416 16010KT